sensor_id;sensor_type;location;lat;lon;timestamp;pressure;altitude;pressure_sealevel;temperature;humidity
62632;BME280;48703;51.248;-0.546;2023-12-20T00:02:16;101583;;;4.99;100.00
62632;BME280;48703;51.248;-0.546;2023-12-20T00:04:32;101600;;;5.03;100.00
62632;BME280;48703;51.248;-0.546;2023-12-20T00:07:34;101600;;;5.03;100.00
62632;BME280;48703;51.248;-0.546;2023-12-20T00:10:36;101599;;;5.02;100.00
62632;BME280;48703;51.248;-0.546;2023-12-20T00:19:21;101599;;;5.00;100.00
62632;BME280;48703;51.248;-0.546;2023-12-20T00:21:44;101600;;;4.98;100.00
62632;BME280;48703;51.248;-0.546;2023-12-20T00:24:46;101596;;;4.96;100.00
62632;BME280;48703;51.248;-0.546;2023-12-20T00:27:48;101595;;;4.94;100.00
62632;BME280;48703;51.248;-0.546;2023-12-20T00:30:50;101597;;;4.94;100.00
62632;BME280;48703;51.248;-0.546;2023-12-20T00:33:53;101600;;;4.93;100.00
62632;BME280;48703;51.248;-0.546;2023-12-20T00:36:55;101602;;;4.92;100.00
62632;BME280;48703;51.248;-0.546;2023-12-20T00:39:57;101604;;;4.94;100.00
62632;BME280;48703;51.248;-0.546;2023-12-20T00:42:59;101607;;;4.94;100.00
62632;BME280;48703;51.248;-0.546;2023-12-20T00:46:02;101603;;;4.94;100.00
62632;BME280;48703;51.248;-0.546;2023-12-20T00:49:04;101595;;;4.94;100.00
62632;BME280;48703;51.248;-0.546;2023-12-20T00:52:06;101593;;;4.94;100.00
62632;BME280;48703;51.248;-0.546;2023-12-20T00:55:08;101589;;;4.95;100.00
62632;BME280;48703;51.248;-0.546;2023-12-20T00:58:10;101586;;;4.95;100.00
62632;BME280;48703;51.248;-0.546;2023-12-20T01:01:13;101583;;;4.95;100.00
62632;BME280;48703;51.248;-0.546;2023-12-20T01:04:15;101572;;;4.96;100.00
62632;BME280;48703;51.248;-0.546;2023-12-20T01:07:17;101568;;;4.96;100.00
62632;BME280;48703;51.248;-0.546;2023-12-20T01:10:19;101569;;;4.97;100.00
62632;BME280;48703;51.248;-0.546;2023-12-20T01:13:22;101569;;;4.99;100.00
62632;BME280;48703;51.248;-0.546;2023-12-20T01:16:24;101570;;;5.00;100.00
62632;BME280;48703;51.248;-0.546;2023-12-20T01:19:26;101569;;;4.99;100.00
62632;BME280;48703;51.248;-0.546;2023-12-20T01:22:28;101566;;;4.99;100.00
62632;BME280;48703;51.248;-0.546;2023-12-20T01:25:31;101563;;;5.00;100.00
62632;BME280;48703;51.248;-0.546;2023-12-20T01:28:33;101561;;;4.99;100.00
62632;BME280;48703;51.248;-0.546;2023-12-20T01:31:35;101552;;;4.99;100.00
62632;BME280;48703;51.248;-0.546;2023-12-20T01:34:37;101547;;;4.99;100.00
62632;BME280;48703;51.248;-0.546;2023-12-20T01:37:39;101555;;;5.00;100.00
62632;BME280;48703;51.248;-0.546;2023-12-20T01:40:42;101557;;;4.99;100.00
62632;BME280;48703;51.248;-0.546;2023-12-20T01:43:44;101557;;;4.99;100.00
62632;BME280;48703;51.248;-0.546;2023-12-20T01:46:46;101562;;;4.99;100.00
62632;BME280;48703;51.248;-0.546;2023-12-20T01:49:48;101566;;;4.99;100.00
62632;BME280;48703;51.248;-0.546;2023-12-20T01:52:51;101571;;;5.00;100.00
62632;BME280;48703;51.248;-0.546;2023-12-20T01:55:54;101571;;;5.01;100.00
62632;BME280;48703;51.248;-0.546;2023-12-20T01:58:55;101568;;;5.03;100.00
62632;BME280;48703;51.248;-0.546;2023-12-20T02:01:57;101566;;;5.04;100.00
62632;BME280;48703;51.248;-0.546;2023-12-20T02:04:59;101563;;;5.03;100.00
62632;BME280;48703;51.248;-0.546;2023-12-20T02:08:02;101562;;;5.03;100.00
62632;BME280;48703;51.248;-0.546;2023-12-20T02:11:04;101558;;;5.02;100.00
62632;BME280;48703;51.248;-0.546;2023-12-20T02:14:06;101558;;;5.02;100.00
62632;BME280;48703;51.248;-0.546;2023-12-20T02:17:08;101558;;;5.01;100.00
62632;BME280;48703;51.248;-0.546;2023-12-20T02:20:11;101556;;;5.00;100.00
62632;BME280;48703;51.248;-0.546;2023-12-20T02:23:13;101551;;;4.99;100.00
62632;BME280;48703;51.248;-0.546;2023-12-20T02:26:15;101544;;;4.99;100.00
62632;BME280;48703;51.248;-0.546;2023-12-20T02:29:17;101538;;;5.00;100.00
62632;BME280;48703;51.248;-0.546;2023-12-20T02:32:20;101536;;;4.99;100.00
62632;BME280;48703;51.248;-0.546;2023-12-20T02:35:22;101539;;;5.00;100.00
62632;BME280;48703;51.248;-0.546;2023-12-20T02:38:24;101535;;;5.01;100.00
62632;BME280;48703;51.248;-0.546;2023-12-20T02:41:28;101539;;;5.01;100.00
62632;BME280;48703;51.248;-0.546;2023-12-20T02:44:29;101544;;;5.00;100.00
62632;BME280;48703;51.248;-0.546;2023-12-20T02:47:31;101542;;;4.99;100.00
62632;BME280;48703;51.248;-0.546;2023-12-20T02:50:33;101544;;;5.00;100.00
62632;BME280;48703;51.248;-0.546;2023-12-20T02:53:35;101546;;;5.00;100.00
62632;BME280;48703;51.248;-0.546;2023-12-20T02:56:38;101553;;;5.00;100.00
62632;BME280;48703;51.248;-0.546;2023-12-20T02:59:40;101552;;;5.01;100.00
62632;BME280;48703;51.248;-0.546;2023-12-20T03:02:42;101553;;;5.01;100.00
62632;BME280;48703;51.248;-0.546;2023-12-20T03:05:45;101552;;;5.00;100.00
62632;BME280;48703;51.248;-0.546;2023-12-20T03:08:47;101554;;;4.99;100.00
62632;BME280;48703;51.248;-0.546;2023-12-20T03:11:49;101550;;;4.99;100.00
62632;BME280;48703;51.248;-0.546;2023-12-20T03:14:51;101553;;;4.98;100.00
62632;BME280;48703;51.248;-0.546;2023-12-20T03:17:53;101551;;;4.97;100.00
62632;BME280;48703;51.248;-0.546;2023-12-20T03:20:56;101553;;;4.96;100.00
62632;BME280;48703;51.248;-0.546;2023-12-20T03:23:59;101552;;;4.95;100.00
62632;BME280;48703;51.248;-0.546;2023-12-20T03:27:00;101554;;;4.95;100.00
62632;BME280;48703;51.248;-0.546;2023-12-20T03:30:03;101547;;;4.94;100.00
62632;BME280;48703;51.248;-0.546;2023-12-20T03:33:05;101546;;;4.94;100.00
62632;BME280;48703;51.248;-0.546;2023-12-20T03:36:07;101536;;;4.92;100.00
62632;BME280;48703;51.248;-0.546;2023-12-20T03:39:09;101539;;;4.92;100.00
62632;BME280;48703;51.248;-0.546;2023-12-20T03:42:11;101539;;;4.91;100.00
62632;BME280;48703;51.248;-0.546;2023-12-20T03:45:14;101538;;;4.89;100.00
62632;BME280;48703;51.248;-0.546;2023-12-20T03:48:16;101543;;;4.89;100.00
62632;BME280;48703;51.248;-0.546;2023-12-20T03:51:18;101545;;;4.89;100.00
62632;BME280;48703;51.248;-0.546;2023-12-20T03:54:20;101560;;;4.89;100.00
62632;BME280;48703;51.248;-0.546;2023-12-20T03:57:22;101568;;;4.90;100.00
62632;BME280;48703;51.248;-0.546;2023-12-20T04:00:25;101569;;;4.89;100.00
62632;BME280;48703;51.248;-0.546;2023-12-20T04:03:27;101562;;;4.88;100.00
62632;BME280;48703;51.248;-0.546;2023-12-20T04:06:29;101552;;;4.88;100.00
62632;BME280;48703;51.248;-0.546;2023-12-20T04:09:31;101550;;;4.87;100.00
62632;BME280;48703;51.248;-0.546;2023-12-20T04:12:34;101549;;;4.86;100.00
62632;BME280;48703;51.248;-0.546;2023-12-20T04:15:36;101539;;;4.86;100.00
62632;BME280;48703;51.248;-0.546;2023-12-20T04:18:38;101535;;;4.86;100.00
62632;BME280;48703;51.248;-0.546;2023-12-20T04:21:40;101539;;;4.87;100.00
62632;BME280;48703;51.248;-0.546;2023-12-20T04:24:43;101539;;;4.88;100.00
62632;BME280;48703;51.248;-0.546;2023-12-20T04:27:45;101533;;;4.87;100.00
62632;BME280;48703;51.248;-0.546;2023-12-20T04:30:47;101532;;;4.86;100.00
62632;BME280;48703;51.248;-0.546;2023-12-20T04:33:49;101533;;;4.87;100.00
62632;BME280;48703;51.248;-0.546;2023-12-20T04:36:52;101539;;;4.87;100.00
62632;BME280;48703;51.248;-0.546;2023-12-20T04:39:54;101541;;;4.88;100.00
62632;BME280;48703;51.248;-0.546;2023-12-20T04:42:56;101533;;;4.89;100.00
62632;BME280;48703;51.248;-0.546;2023-12-20T04:45:58;101531;;;4.88;100.00
62632;BME280;48703;51.248;-0.546;2023-12-20T04:49:01;101526;;;4.86;100.00
62632;BME280;48703;51.248;-0.546;2023-12-20T04:52:03;101525;;;4.86;100.00
62632;BME280;48703;51.248;-0.546;2023-12-20T04:55:05;101523;;;4.87;100.00
62632;BME280;48703;51.248;-0.546;2023-12-20T04:58:07;101527;;;4.87;100.00
62632;BME280;48703;51.248;-0.546;2023-12-20T05:01:10;101533;;;4.87;100.00
62632;BME280;48703;51.248;-0.546;2023-12-20T05:04:12;101533;;;4.87;100.00
62632;BME280;48703;51.248;-0.546;2023-12-20T05:07:14;101536;;;4.86;100.00
62632;BME280;48703;51.248;-0.546;2023-12-20T05:10:16;101537;;;4.87;100.00
62632;BME280;48703;51.248;-0.546;2023-12-20T05:13:19;101538;;;4.86;100.00
62632;BME280;48703;51.248;-0.546;2023-12-20T05:16:21;101542;;;4.86;100.00
62632;BME280;48703;51.248;-0.546;2023-12-20T05:19:23;101550;;;4.85;100.00
62632;BME280;48703;51.248;-0.546;2023-12-20T05:22:25;101547;;;4.87;100.00
62632;BME280;48703;51.248;-0.546;2023-12-20T05:25:27;101552;;;4.91;100.00
62632;BME280;48703;51.248;-0.546;2023-12-20T05:28:30;101546;;;4.94;100.00
62632;BME280;48703;51.248;-0.546;2023-12-20T05:31:33;101545;;;4.96;100.00
62632;BME280;48703;51.248;-0.546;2023-12-20T05:34:34;101546;;;4.99;100.00
62632;BME280;48703;51.248;-0.546;2023-12-20T05:37:36;101533;;;5.03;100.00
62632;BME280;48703;51.248;-0.546;2023-12-20T05:40:39;101510;;;5.06;100.00
62632;BME280;48703;51.248;-0.546;2023-12-20T05:43:41;101515;;;5.10;100.00
62632;BME280;48703;51.248;-0.546;2023-12-20T05:46:43;101517;;;5.12;100.00
62632;BME280;48703;51.248;-0.546;2023-12-20T05:49:45;101508;;;5.14;100.00
62632;BME280;48703;51.248;-0.546;2023-12-20T05:52:48;101501;;;5.15;100.00
62632;BME280;48703;51.248;-0.546;2023-12-20T05:55:50;101501;;;5.16;100.00
62632;BME280;48703;51.248;-0.546;2023-12-20T05:58:52;101498;;;5.17;100.00
62632;BME280;48703;51.248;-0.546;2023-12-20T06:01:54;101487;;;5.17;100.00
62632;BME280;48703;51.248;-0.546;2023-12-20T06:04:57;101484;;;5.19;100.00
62632;BME280;48703;51.248;-0.546;2023-12-20T06:07:59;101482;;;5.19;100.00
62632;BME280;48703;51.248;-0.546;2023-12-20T06:11:01;101479;;;5.20;100.00
62632;BME280;48703;51.248;-0.546;2023-12-20T06:14:03;101480;;;5.19;100.00
62632;BME280;48703;51.248;-0.546;2023-12-20T06:17:06;101478;;;5.20;100.00
62632;BME280;48703;51.248;-0.546;2023-12-20T06:20:08;101475;;;5.23;100.00
62632;BME280;48703;51.248;-0.546;2023-12-20T06:23:10;101488;;;5.23;100.00
62632;BME280;48703;51.248;-0.546;2023-12-20T06:26:12;101499;;;5.23;100.00
62632;BME280;48703;51.248;-0.546;2023-12-20T06:29:15;101493;;;5.24;100.00
62632;BME280;48703;51.248;-0.546;2023-12-20T06:32:17;101495;;;5.25;100.00
62632;BME280;48703;51.248;-0.546;2023-12-20T06:35:19;101489;;;5.25;100.00
62632;BME280;48703;51.248;-0.546;2023-12-20T06:38:21;101494;;;5.25;100.00
62632;BME280;48703;51.248;-0.546;2023-12-20T06:41:24;101495;;;5.26;100.00
62632;BME280;48703;51.248;-0.546;2023-12-20T06:44:26;101494;;;5.28;100.00
62632;BME280;48703;51.248;-0.546;2023-12-20T06:47:28;101501;;;5.29;100.00
62632;BME280;48703;51.248;-0.546;2023-12-20T06:50:30;101503;;;5.30;100.00
62632;BME280;48703;51.248;-0.546;2023-12-20T06:53:33;101498;;;5.32;100.00
62632;BME280;48703;51.248;-0.546;2023-12-20T06:56:35;101494;;;5.34;100.00
62632;BME280;48703;51.248;-0.546;2023-12-20T06:59:38;101488;;;5.35;100.00
62632;BME280;48703;51.248;-0.546;2023-12-20T07:02:39;101485;;;5.36;100.00
62632;BME280;48703;51.248;-0.546;2023-12-20T07:05:41;101485;;;5.38;100.00
62632;BME280;48703;51.248;-0.546;2023-12-20T07:08:44;101491;;;5.38;100.00
62632;BME280;48703;51.248;-0.546;2023-12-20T07:11:46;101496;;;5.39;100.00
62632;BME280;48703;51.248;-0.546;2023-12-20T07:14:48;101493;;;5.40;100.00
62632;BME280;48703;51.248;-0.546;2023-12-20T07:17:50;101484;;;5.43;100.00
62632;BME280;48703;51.248;-0.546;2023-12-20T07:20:53;101484;;;5.45;100.00
62632;BME280;48703;51.248;-0.546;2023-12-20T07:23:55;101479;;;5.49;100.00
62632;BME280;48703;51.248;-0.546;2023-12-20T07:26:57;101474;;;5.52;100.00
62632;BME280;48703;51.248;-0.546;2023-12-20T07:29:59;101478;;;5.54;100.00
62632;BME280;48703;51.248;-0.546;2023-12-20T07:33:02;101474;;;5.56;100.00
62632;BME280;48703;51.248;-0.546;2023-12-20T07:36:04;101466;;;5.58;100.00
62632;BME280;48703;51.248;-0.546;2023-12-20T07:39:06;101457;;;5.59;100.00
62632;BME280;48703;51.248;-0.546;2023-12-20T07:42:08;101463;;;5.61;100.00
62632;BME280;48703;51.248;-0.546;2023-12-20T07:45:11;101466;;;5.66;100.00
62632;BME280;48703;51.248;-0.546;2023-12-20T07:48:13;101462;;;5.67;100.00
62632;BME280;48703;51.248;-0.546;2023-12-20T07:51:15;101472;;;5.69;100.00
62632;BME280;48703;51.248;-0.546;2023-12-20T07:54:17;101474;;;5.69;100.00
62632;BME280;48703;51.248;-0.546;2023-12-20T07:57:20;101483;;;5.69;100.00
62632;BME280;48703;51.248;-0.546;2023-12-20T08:00:22;101485;;;5.73;100.00
62632;BME280;48703;51.248;-0.546;2023-12-20T08:03:24;101485;;;5.73;100.00
62632;BME280;48703;51.248;-0.546;2023-12-20T08:06:26;101485;;;5.75;100.00
62632;BME280;48703;51.248;-0.546;2023-12-20T08:09:29;101491;;;5.75;100.00
62632;BME280;48703;51.248;-0.546;2023-12-20T08:12:31;101490;;;5.74;100.00
62632;BME280;48703;51.248;-0.546;2023-12-20T08:15:33;101511;;;5.75;100.00
62632;BME280;48703;51.248;-0.546;2023-12-20T08:18:35;101512;;;5.75;100.00
62632;BME280;48703;51.248;-0.546;2023-12-20T08:21:38;101505;;;5.76;100.00
62632;BME280;48703;51.248;-0.546;2023-12-20T08:24:40;101514;;;5.76;100.00
62632;BME280;48703;51.248;-0.546;2023-12-20T08:27:42;101522;;;5.76;100.00
62632;BME280;48703;51.248;-0.546;2023-12-20T08:30:45;101522;;;5.77;100.00
62632;BME280;48703;51.248;-0.546;2023-12-20T08:33:47;101520;;;5.77;100.00
62632;BME280;48703;51.248;-0.546;2023-12-20T08:36:49;101509;;;5.78;100.00
62632;BME280;48703;51.248;-0.546;2023-12-20T08:39:51;101507;;;5.79;100.00
62632;BME280;48703;51.248;-0.546;2023-12-20T08:42:55;101508;;;5.79;100.00
62632;BME280;48703;51.248;-0.546;2023-12-20T08:45:56;101518;;;5.80;100.00
62632;BME280;48703;51.248;-0.546;2023-12-20T08:48:58;101520;;;5.81;100.00
62632;BME280;48703;51.248;-0.546;2023-12-20T08:52:00;101530;;;5.83;100.00
62632;BME280;48703;51.248;-0.546;2023-12-20T08:55:03;101527;;;5.84;100.00
62632;BME280;48703;51.248;-0.546;2023-12-20T08:58:05;101519;;;5.86;100.00
62632;BME280;48703;51.248;-0.546;2023-12-20T09:01:07;101525;;;5.90;100.00
62632;BME280;48703;51.248;-0.546;2023-12-20T09:04:09;101510;;;5.93;100.00
62632;BME280;48703;51.248;-0.546;2023-12-20T09:07:20;101492;;;5.96;100.00
62632;BME280;48703;51.248;-0.546;2023-12-20T09:10:14;101481;;;5.97;100.00
62632;BME280;48703;51.248;-0.546;2023-12-20T09:13:16;101481;;;6.03;100.00
62632;BME280;48703;51.248;-0.546;2023-12-20T09:16:18;101487;;;6.06;100.00
62632;BME280;48703;51.248;-0.546;2023-12-20T09:19:21;101492;;;6.10;100.00
62632;BME280;48703;51.248;-0.546;2023-12-20T09:22:23;101493;;;6.14;100.00
62632;BME280;48703;51.248;-0.546;2023-12-20T09:25:25;101486;;;6.18;100.00
62632;BME280;48703;51.248;-0.546;2023-12-20T09:28:27;101495;;;6.23;100.00
62632;BME280;48703;51.248;-0.546;2023-12-20T09:31:30;101488;;;6.32;100.00
62632;BME280;48703;51.248;-0.546;2023-12-20T09:34:32;101495;;;6.40;100.00
62632;BME280;48703;51.248;-0.546;2023-12-20T09:37:34;101501;;;6.46;100.00
62632;BME280;48703;51.248;-0.546;2023-12-20T09:40:36;101499;;;6.52;100.00
62632;BME280;48703;51.248;-0.546;2023-12-20T09:43:41;101505;;;6.59;100.00
62632;BME280;48703;51.248;-0.546;2023-12-20T09:46:42;101511;;;6.65;100.00
62632;BME280;48703;51.248;-0.546;2023-12-20T09:49:43;101513;;;6.69;100.00
62632;BME280;48703;51.248;-0.546;2023-12-20T09:52:46;101508;;;6.72;100.00
62632;BME280;48703;51.248;-0.546;2023-12-20T09:55:49;101500;;;6.76;100.00
62632;BME280;48703;51.248;-0.546;2023-12-20T09:58:50;101512;;;6.80;100.00
62632;BME280;48703;51.248;-0.546;2023-12-20T10:01:52;101519;;;6.87;100.00
62632;BME280;48703;51.248;-0.546;2023-12-20T10:04:54;101501;;;6.91;100.00
62632;BME280;48703;51.248;-0.546;2023-12-20T10:07:57;101506;;;6.93;100.00
62632;BME280;48703;51.248;-0.546;2023-12-20T10:10:59;101508;;;6.99;100.00
62632;BME280;48703;51.248;-0.546;2023-12-20T10:14:01;101509;;;7.04;100.00
62632;BME280;48703;51.248;-0.546;2023-12-20T10:17:04;101495;;;7.06;100.00
62632;BME280;48703;51.248;-0.546;2023-12-20T10:20:06;101481;;;7.11;100.00
62632;BME280;48703;51.248;-0.546;2023-12-20T10:23:08;101480;;;7.15;100.00
62632;BME280;48703;51.248;-0.546;2023-12-20T10:26:10;101472;;;7.19;100.00
62632;BME280;48703;51.248;-0.546;2023-12-20T10:29:12;101477;;;7.22;100.00
62632;BME280;48703;51.248;-0.546;2023-12-20T10:32:22;101481;;;7.25;100.00
62632;BME280;48703;51.248;-0.546;2023-12-20T10:35:17;101484;;;7.31;100.00
62632;BME280;48703;51.248;-0.546;2023-12-20T10:38:19;101486;;;7.37;100.00
62632;BME280;48703;51.248;-0.546;2023-12-20T10:41:23;101479;;;7.42;100.00
62632;BME280;48703;51.248;-0.546;2023-12-20T10:44:23;101474;;;7.45;100.00
62632;BME280;48703;51.248;-0.546;2023-12-20T10:47:26;101461;;;7.49;100.00
62632;BME280;48703;51.248;-0.546;2023-12-20T10:50:28;101473;;;7.55;100.00
62632;BME280;48703;51.248;-0.546;2023-12-20T10:53:30;101479;;;7.64;100.00
62632;BME280;48703;51.248;-0.546;2023-12-20T10:56:32;101471;;;7.69;100.00
62632;BME280;48703;51.248;-0.546;2023-12-20T10:59:38;101458;;;7.74;100.00
62632;BME280;48703;51.248;-0.546;2023-12-20T11:02:38;101459;;;7.78;100.00
62632;BME280;48703;51.248;-0.546;2023-12-20T11:05:42;101445;;;7.83;100.00
62632;BME280;48703;51.248;-0.546;2023-12-20T11:08:44;101447;;;7.86;100.00
62632;BME280;48703;51.248;-0.546;2023-12-20T11:11:49;101438;;;7.88;100.00
62632;BME280;48703;51.248;-0.546;2023-12-20T11:14:46;101428;;;7.91;100.00
62632;BME280;48703;51.248;-0.546;2023-12-20T11:17:54;101423;;;7.96;100.00
62632;BME280;48703;51.248;-0.546;2023-12-20T11:20:50;101420;;;8.02;100.00
62632;BME280;48703;51.248;-0.546;2023-12-20T11:23:52;101409;;;8.05;100.00
62632;BME280;48703;51.248;-0.546;2023-12-20T11:26:55;101400;;;8.10;100.00
62632;BME280;48703;51.248;-0.546;2023-12-20T11:29:58;101393;;;8.14;100.00
62632;BME280;48703;51.248;-0.546;2023-12-20T11:32:59;101397;;;8.17;100.00
62632;BME280;48703;51.248;-0.546;2023-12-20T11:36:02;101405;;;8.17;100.00
62632;BME280;48703;51.248;-0.546;2023-12-20T11:39:04;101395;;;8.20;100.00
62632;BME280;48703;51.248;-0.546;2023-12-20T11:42:06;101378;;;8.21;100.00
62632;BME280;48703;51.248;-0.546;2023-12-20T11:45:08;101377;;;8.23;100.00
62632;BME280;48703;51.248;-0.546;2023-12-20T11:48:10;101370;;;8.25;100.00
62632;BME280;48703;51.248;-0.546;2023-12-20T11:51:13;101365;;;8.29;100.00
62632;BME280;48703;51.248;-0.546;2023-12-20T11:54:15;101352;;;8.32;100.00
62632;BME280;48703;51.248;-0.546;2023-12-20T11:57:17;101348;;;8.35;100.00
62632;BME280;48703;51.248;-0.546;2023-12-20T12:00:19;101340;;;8.39;100.00
62632;BME280;48703;51.248;-0.546;2023-12-20T12:03:22;101326;;;8.43;100.00
62632;BME280;48703;51.248;-0.546;2023-12-20T12:06:24;101319;;;8.47;100.00
62632;BME280;48703;51.248;-0.546;2023-12-20T12:09:26;101321;;;8.51;100.00
62632;BME280;48703;51.248;-0.546;2023-12-20T12:12:28;101323;;;8.55;100.00
62632;BME280;48703;51.248;-0.546;2023-12-20T12:15:31;101321;;;8.55;100.00
62632;BME280;48703;51.248;-0.546;2023-12-20T12:18:33;101314;;;8.57;100.00
62632;BME280;48703;51.248;-0.546;2023-12-20T12:21:35;101320;;;8.59;100.00
62632;BME280;48703;51.248;-0.546;2023-12-20T12:24:37;101331;;;8.63;100.00
62632;BME280;48703;51.248;-0.546;2023-12-20T12:27:40;101327;;;8.67;100.00
62632;BME280;48703;51.248;-0.546;2023-12-20T12:30:42;101316;;;8.72;100.00
62632;BME280;48703;51.248;-0.546;2023-12-20T12:33:44;101301;;;8.76;100.00
62632;BME280;48703;51.248;-0.546;2023-12-20T12:36:46;101282;;;8.79;100.00
62632;BME280;48703;51.248;-0.546;2023-12-20T12:39:48;101279;;;8.84;100.00
62632;BME280;48703;51.248;-0.546;2023-12-20T12:42:51;101266;;;8.91;100.00
62632;BME280;48703;51.248;-0.546;2023-12-20T12:45:53;101263;;;8.98;100.00
62632;BME280;48703;51.248;-0.546;2023-12-20T12:48:55;101270;;;9.04;100.00
62632;BME280;48703;51.248;-0.546;2023-12-20T12:51:57;101262;;;9.08;100.00
62632;BME280;48703;51.248;-0.546;2023-12-20T12:55:00;101261;;;9.09;100.00
62632;BME280;48703;51.248;-0.546;2023-12-20T12:58:02;101256;;;9.10;100.00
62632;BME280;48703;51.248;-0.546;2023-12-20T13:01:04;101249;;;9.13;100.00
62632;BME280;48703;51.248;-0.546;2023-12-20T13:04:06;101252;;;9.15;100.00
62632;BME280;48703;51.248;-0.546;2023-12-20T13:07:10;101251;;;9.20;100.00
62632;BME280;48703;51.248;-0.546;2023-12-20T13:10:11;101231;;;9.22;100.00
62632;BME280;48703;51.248;-0.546;2023-12-20T13:13:13;101221;;;9.24;100.00
62632;BME280;48703;51.248;-0.546;2023-12-20T13:16:15;101218;;;9.24;100.00
62632;BME280;48703;51.248;-0.546;2023-12-20T13:19:17;101217;;;9.24;100.00
62632;BME280;48703;51.248;-0.546;2023-12-20T13:22:20;101207;;;9.25;100.00
62632;BME280;48703;51.248;-0.546;2023-12-20T13:25:22;101208;;;9.26;100.00
62632;BME280;48703;51.248;-0.546;2023-12-20T13:28:24;101209;;;9.28;100.00
62632;BME280;48703;51.248;-0.546;2023-12-20T13:31:26;101212;;;9.29;100.00
62632;BME280;48703;51.248;-0.546;2023-12-20T13:34:28;101221;;;9.31;100.00
62632;BME280;48703;51.248;-0.546;2023-12-20T13:37:31;101217;;;9.34;100.00
62632;BME280;48703;51.248;-0.546;2023-12-20T13:40:33;101212;;;9.34;100.00
62632;BME280;48703;51.248;-0.546;2023-12-20T13:43:35;101204;;;9.34;100.00
62632;BME280;48703;51.248;-0.546;2023-12-20T13:46:37;101194;;;9.34;100.00
62632;BME280;48703;51.248;-0.546;2023-12-20T13:49:41;101183;;;9.36;100.00
62632;BME280;48703;51.248;-0.546;2023-12-20T13:52:42;101167;;;9.36;100.00
62632;BME280;48703;51.248;-0.546;2023-12-20T13:55:44;101162;;;9.36;100.00
62632;BME280;48703;51.248;-0.546;2023-12-20T13:58:46;101138;;;9.37;100.00
62632;BME280;48703;51.248;-0.546;2023-12-20T14:01:49;101122;;;9.38;100.00
62632;BME280;48703;51.248;-0.546;2023-12-20T14:04:51;101114;;;9.40;100.00
62632;BME280;48703;51.248;-0.546;2023-12-20T14:07:53;101119;;;9.40;100.00
62632;BME280;48703;51.248;-0.546;2023-12-20T14:10:55;101120;;;9.40;100.00
62632;BME280;48703;51.248;-0.546;2023-12-20T14:13:58;101115;;;9.40;100.00
62632;BME280;48703;51.248;-0.546;2023-12-20T14:17:00;101108;;;9.39;100.00
62632;BME280;48703;51.248;-0.546;2023-12-20T14:20:02;101102;;;9.41;100.00
62632;BME280;48703;51.248;-0.546;2023-12-20T14:23:04;101102;;;9.41;100.00
62632;BME280;48703;51.248;-0.546;2023-12-20T14:26:07;101092;;;9.43;100.00
62632;BME280;48703;51.248;-0.546;2023-12-20T14:29:09;101088;;;9.43;100.00
62632;BME280;48703;51.248;-0.546;2023-12-20T14:32:11;101084;;;9.43;100.00
62632;BME280;48703;51.248;-0.546;2023-12-20T14:35:14;101085;;;9.41;100.00
62632;BME280;48703;51.248;-0.546;2023-12-20T14:38:16;101090;;;9.41;100.00
62632;BME280;48703;51.248;-0.546;2023-12-20T14:41:18;101091;;;9.41;100.00
62632;BME280;48703;51.248;-0.546;2023-12-20T14:44:20;101081;;;9.42;100.00
62632;BME280;48703;51.248;-0.546;2023-12-20T14:47:22;101070;;;9.41;100.00
62632;BME280;48703;51.248;-0.546;2023-12-20T14:50:25;101072;;;9.42;100.00
62632;BME280;48703;51.248;-0.546;2023-12-20T14:53:28;101080;;;9.42;100.00
62632;BME280;48703;51.248;-0.546;2023-12-20T14:56:29;101086;;;9.41;100.00
62632;BME280;48703;51.248;-0.546;2023-12-20T14:59:31;101102;;;9.43;100.00
62632;BME280;48703;51.248;-0.546;2023-12-20T15:02:34;101112;;;9.43;100.00
62632;BME280;48703;51.248;-0.546;2023-12-20T15:05:36;101107;;;9.42;100.00
62632;BME280;48703;51.248;-0.546;2023-12-20T15:08:38;101090;;;9.44;100.00
62632;BME280;48703;51.248;-0.546;2023-12-20T15:11:40;101085;;;9.44;100.00
62632;BME280;48703;51.248;-0.546;2023-12-20T15:14:44;101078;;;9.43;100.00
62632;BME280;48703;51.248;-0.546;2023-12-20T15:17:45;101086;;;9.42;100.00
62632;BME280;48703;51.248;-0.546;2023-12-20T15:20:47;101091;;;9.42;100.00
62632;BME280;48703;51.248;-0.546;2023-12-20T15:23:49;101088;;;9.43;100.00
62632;BME280;48703;51.248;-0.546;2023-12-20T15:26:51;101086;;;9.43;100.00
62632;BME280;48703;51.248;-0.546;2023-12-20T15:29:54;101084;;;9.43;100.00
62632;BME280;48703;51.248;-0.546;2023-12-20T15:32:56;101078;;;9.41;100.00
62632;BME280;48703;51.248;-0.546;2023-12-20T15:35:58;101073;;;9.40;100.00
62632;BME280;48703;51.248;-0.546;2023-12-20T15:39:00;101072;;;9.40;100.00
62632;BME280;48703;51.248;-0.546;2023-12-20T15:42:03;101065;;;9.40;100.00
62632;BME280;48703;51.248;-0.546;2023-12-20T15:45:05;101070;;;9.40;100.00
62632;BME280;48703;51.248;-0.546;2023-12-20T15:48:07;101067;;;9.39;100.00
62632;BME280;48703;51.248;-0.546;2023-12-20T15:51:10;101062;;;9.40;100.00
62632;BME280;48703;51.248;-0.546;2023-12-20T15:54:12;101045;;;9.40;100.00
62632;BME280;48703;51.248;-0.546;2023-12-20T15:57:14;101051;;;9.41;100.00
62632;BME280;48703;51.248;-0.546;2023-12-20T16:00:16;101053;;;9.41;100.00
62632;BME280;48703;51.248;-0.546;2023-12-20T16:03:18;101051;;;9.41;100.00
62632;BME280;48703;51.248;-0.546;2023-12-20T16:06:21;101048;;;9.41;100.00
62632;BME280;48703;51.248;-0.546;2023-12-20T16:09:23;101049;;;9.41;100.00
62632;BME280;48703;51.248;-0.546;2023-12-20T16:12:25;101056;;;9.41;100.00
62632;BME280;48703;51.248;-0.546;2023-12-20T16:15:27;101055;;;9.42;100.00
62632;BME280;48703;51.248;-0.546;2023-12-20T16:18:30;101051;;;9.43;100.00
62632;BME280;48703;51.248;-0.546;2023-12-20T16:21:32;101049;;;9.42;100.00